Accueil
METAR-TAF:

METAR-TAF

Aéroports :

Ponape, Micronésie

Aéroport international de Pohnpei

latitude: 06-59N, longitude: 158-12E, altitude: 2 m

Observation

Le bulletin a été fait il y a 1 heure et 1 minutes, à 02:50 UTC
Vent 5 kt de nord
Température 31°C
Humidité 75%
Pression 1006 hPa
Visibilité: 24.1 km
Nuages épars à une hauteur de 1800 ft, Cumulus congestus.
Nuages fragmentés à une hauteur de 13000 ft
Nuages fragmentés à une hauteur de 30000 ft

METAR: PTPN 230250Z 36005KT 15SM SCT018TCU BKN130 BKN300 31/26 A2970 RMK TCU SE-SW

Heure: 14:51 (03:51 UTC)

Prévision

Le bulletin a été fait il y a 4 heures et 25 minutes, à 23:26 UTC
Prévision valable du 23 à 00 UTC au 23 à 24 UTC
Vent 6 kt de nord/nord-ouest
Visibilité: 10 km
Nuages épars à une hauteur de 1800 ft
Nuages épars à une hauteur de 4000 ft
Nuages fragmentés à une hauteur de 15000 ft
averses à proximité

TAF: PTPN 222326Z 2300/2324 34006KT P6SM VCSH SCT018 SCT040 BKN150

Observations et prévisions météorologiques de plus de 4000 aéroports (messages METAR et TAF).

Les stations disponibles sont représentées par des disques jaunes et rouges sur la carte.

Passer la souris dessus pour voir le nom de la station.

Cliquer dessus pour voir les observations et prévisions météorologiques.

Pour changer de carte: cliquez sur les boutons verts avec une croix noire pour zoomer, sur le bouton vert avec un tiret pour effectuer un zoom arrière, ou sur les flèches vertes pour les cartes adjacentes.


METAR-TAF: